sensor_id;sensor_type;location;lat;lon;timestamp;temperature;humidity
5429;DHT22;2737;52.386;9.980;2023-09-12T00:00:28;20.60;99.90
5429;DHT22;2737;52.386;9.980;2023-09-12T00:02:55;20.60;99.90
5429;DHT22;2737;52.386;9.980;2023-09-12T00:05:22;20.60;99.90
5429;DHT22;2737;52.386;9.980;2023-09-12T00:07:52;20.60;99.90
5429;DHT22;2737;52.386;9.980;2023-09-12T00:10:20;20.60;99.90
5429;DHT22;2737;52.386;9.980;2023-09-12T00:12:47;20.60;99.90
5429;DHT22;2737;52.386;9.980;2023-09-12T00:15:15;20.70;99.90
5429;DHT22;2737;52.386;9.980;2023-09-12T00:17:42;20.70;99.90
5429;DHT22;2737;52.386;9.980;2023-09-12T00:20:09;20.70;99.90
5429;DHT22;2737;52.386;9.980;2023-09-12T00:22:37;20.70;99.90
5429;DHT22;2737;52.386;9.980;2023-09-12T00:25:04;20.70;99.90
5429;DHT22;2737;52.386;9.980;2023-09-12T00:27:33;20.70;99.90
5429;DHT22;2737;52.386;9.980;2023-09-12T00:30:00;20.70;99.90
5429;DHT22;2737;52.386;9.980;2023-09-12T00:32:27;20.60;99.90
5429;DHT22;2737;52.386;9.980;2023-09-12T00:34:54;20.50;99.90
5429;DHT22;2737;52.386;9.980;2023-09-12T00:37:21;20.40;99.90
5429;DHT22;2737;52.386;9.980;2023-09-12T00:39:48;20.40;99.90
5429;DHT22;2737;52.386;9.980;2023-09-12T00:42:15;20.30;99.90
5429;DHT22;2737;52.386;9.980;2023-09-12T00:44:43;20.30;99.90
5429;DHT22;2737;52.386;9.980;2023-09-12T00:47:11;20.30;99.90
5429;DHT22;2737;52.386;9.980;2023-09-12T00:49:39;20.30;99.90
5429;DHT22;2737;52.386;9.980;2023-09-12T00:52:06;20.30;99.90
5429;DHT22;2737;52.386;9.980;2023-09-12T00:54:34;20.30;99.90
5429;DHT22;2737;52.386;9.980;2023-09-12T00:57:01;20.30;99.90
5429;DHT22;2737;52.386;9.980;2023-09-12T00:59:28;20.30;99.90
5429;DHT22;2737;52.386;9.980;2023-09-12T01:01:57;20.30;99.90
5429;DHT22;2737;52.386;9.980;2023-09-12T01:04:25;20.30;99.90
5429;DHT22;2737;52.386;9.980;2023-09-12T01:06:52;20.30;99.90
5429;DHT22;2737;52.386;9.980;2023-09-12T01:09:20;20.20;99.90
5429;DHT22;2737;52.386;9.980;2023-09-12T01:11:47;20.20;99.90
5429;DHT22;2737;52.386;9.980;2023-09-12T01:14:14;20.20;99.90
5429;DHT22;2737;52.386;9.980;2023-09-12T01:16:41;20.20;99.90
5429;DHT22;2737;52.386;9.980;2023-09-12T01:19:12;20.10;99.90
5429;DHT22;2737;52.386;9.980;2023-09-12T01:27:52;20.20;99.90
5429;DHT22;2737;52.386;9.980;2023-09-12T01:30:22;20.10;99.90
5429;DHT22;2737;52.386;9.980;2023-09-12T01:32:49;20.10;99.90
5429;DHT22;2737;52.386;9.980;2023-09-12T01:35:17;20.10;99.90
5429;DHT22;2737;52.386;9.980;2023-09-12T01:37:44;20.00;99.90
5429;DHT22;2737;52.386;9.980;2023-09-12T01:40:11;20.00;99.90
5429;DHT22;2737;52.386;9.980;2023-09-12T01:42:42;19.90;99.90
5429;DHT22;2737;52.386;9.980;2023-09-12T01:45:13;19.90;99.90
5429;DHT22;2737;52.386;9.980;2023-09-12T01:47:42;19.80;99.90
5429;DHT22;2737;52.386;9.980;2023-09-12T01:50:10;19.80;99.90
5429;DHT22;2737;52.386;9.980;2023-09-12T01:52:39;19.80;99.90
5429;DHT22;2737;52.386;9.980;2023-09-12T01:55:07;19.80;99.90
5429;DHT22;2737;52.386;9.980;2023-09-12T01:57:36;19.80;99.90
5429;DHT22;2737;52.386;9.980;2023-09-12T02:00:04;19.80;99.90
5429;DHT22;2737;52.386;9.980;2023-09-12T02:02:33;19.70;99.90
5429;DHT22;2737;52.386;9.980;2023-09-12T02:05:07;19.60;99.90
5429;DHT22;2737;52.386;9.980;2023-09-12T02:07:38;19.50;99.90
5429;DHT22;2737;52.386;9.980;2023-09-12T02:10:06;19.40;99.90
5429;DHT22;2737;52.386;9.980;2023-09-12T02:12:33;19.40;99.90
5429;DHT22;2737;52.386;9.980;2023-09-12T02:15:00;19.40;99.90
5429;DHT22;2737;52.386;9.980;2023-09-12T02:17:27;19.30;99.90
5429;DHT22;2737;52.386;9.980;2023-09-12T02:19:56;19.40;99.90
5429;DHT22;2737;52.386;9.980;2023-09-12T02:22:23;19.40;99.90
5429;DHT22;2737;52.386;9.980;2023-09-12T02:24:50;19.40;99.90
5429;DHT22;2737;52.386;9.980;2023-09-12T02:27:17;19.40;99.90
5429;DHT22;2737;52.386;9.980;2023-09-12T02:29:44;19.40;99.90
5429;DHT22;2737;52.386;9.980;2023-09-12T02:32:11;19.50;99.90
5429;DHT22;2737;52.386;9.980;2023-09-12T02:34:38;19.40;99.90
5429;DHT22;2737;52.386;9.980;2023-09-12T02:37:07;19.40;99.90
5429;DHT22;2737;52.386;9.980;2023-09-12T02:39:34;19.30;99.90
5429;DHT22;2737;52.386;9.980;2023-09-12T02:42:01;19.40;99.90
5429;DHT22;2737;52.386;9.980;2023-09-12T02:44:28;19.40;99.90
5429;DHT22;2737;52.386;9.980;2023-09-12T02:46:55;19.30;99.90
5429;DHT22;2737;52.386;9.980;2023-09-12T02:49:22;19.30;99.90
5429;DHT22;2737;52.386;9.980;2023-09-12T02:51:49;19.30;99.90
5429;DHT22;2737;52.386;9.980;2023-09-12T02:54:17;19.30;99.90
5429;DHT22;2737;52.386;9.980;2023-09-12T02:56:44;19.20;99.90
5429;DHT22;2737;52.386;9.980;2023-09-12T02:59:11;19.10;99.90
5429;DHT22;2737;52.386;9.980;2023-09-12T03:01:38;19.10;99.90
5429;DHT22;2737;52.386;9.980;2023-09-12T03:04:05;19.10;99.90
5429;DHT22;2737;52.386;9.980;2023-09-12T03:06:32;19.10;99.90
5429;DHT22;2737;52.386;9.980;2023-09-12T03:08:59;19.10;99.90
5429;DHT22;2737;52.386;9.980;2023-09-12T03:11:28;19.10;99.90
5429;DHT22;2737;52.386;9.980;2023-09-12T03:13:55;19.10;99.90
5429;DHT22;2737;52.386;9.980;2023-09-12T03:16:22;19.20;99.90
5429;DHT22;2737;52.386;9.980;2023-09-12T03:18:49;19.20;99.90
5429;DHT22;2737;52.386;9.980;2023-09-12T03:21:16;19.10;99.90
5429;DHT22;2737;52.386;9.980;2023-09-12T03:23:43;19.20;99.90
5429;DHT22;2737;52.386;9.980;2023-09-12T03:26:11;19.20;99.90
5429;DHT22;2737;52.386;9.980;2023-09-12T03:28:39;19.20;99.90
5429;DHT22;2737;52.386;9.980;2023-09-12T03:31:08;19.20;99.90
5429;DHT22;2737;52.386;9.980;2023-09-12T03:33:37;19.20;99.90
5429;DHT22;2737;52.386;9.980;2023-09-12T03:36:05;19.10;99.90
5429;DHT22;2737;52.386;9.980;2023-09-12T03:38:32;19.20;99.90
5429;DHT22;2737;52.386;9.980;2023-09-12T03:40:59;19.10;99.90
5429;DHT22;2737;52.386;9.980;2023-09-12T03:43:27;19.10;99.90
5429;DHT22;2737;52.386;9.980;2023-09-12T03:45:55;19.10;99.90
5429;DHT22;2737;52.386;9.980;2023-09-12T03:48:22;19.10;99.90
5429;DHT22;2737;52.386;9.980;2023-09-12T03:50:49;19.20;99.90
5429;DHT22;2737;52.386;9.980;2023-09-12T03:53:17;19.10;99.90
5429;DHT22;2737;52.386;9.980;2023-09-12T03:55:44;19.10;99.90
5429;DHT22;2737;52.386;9.980;2023-09-12T03:58:11;19.10;99.90
5429;DHT22;2737;52.386;9.980;2023-09-12T04:00:38;19.10;99.90
5429;DHT22;2737;52.386;9.980;2023-09-12T04:03:07;19.00;99.90
5429;DHT22;2737;52.386;9.980;2023-09-12T04:05:34;19.00;99.90
5429;DHT22;2737;52.386;9.980;2023-09-12T04:08:01;19.00;99.90
5429;DHT22;2737;52.386;9.980;2023-09-12T04:10:28;19.00;99.90
5429;DHT22;2737;52.386;9.980;2023-09-12T04:12:55;19.10;99.90
5429;DHT22;2737;52.386;9.980;2023-09-12T04:15:22;19.10;99.90
5429;DHT22;2737;52.386;9.980;2023-09-12T04:17:49;19.10;99.90
5429;DHT22;2737;52.386;9.980;2023-09-12T04:20:18;19.20;99.90
5429;DHT22;2737;52.386;9.980;2023-09-12T04:22:45;19.20;99.90
5429;DHT22;2737;52.386;9.980;2023-09-12T04:25:12;19.20;99.90
5429;DHT22;2737;52.386;9.980;2023-09-12T04:27:41;19.20;99.90
5429;DHT22;2737;52.386;9.980;2023-09-12T04:30:09;19.30;99.90
5429;DHT22;2737;52.386;9.980;2023-09-12T04:32:36;19.30;99.90
5429;DHT22;2737;52.386;9.980;2023-09-12T04:35:04;19.30;99.90
5429;DHT22;2737;52.386;9.980;2023-09-12T04:37:32;19.30;99.90
5429;DHT22;2737;52.386;9.980;2023-09-12T04:39:59;19.30;99.90
5429;DHT22;2737;52.386;9.980;2023-09-12T04:42:26;19.30;99.90
5429;DHT22;2737;52.386;9.980;2023-09-12T04:44:53;19.40;99.90
5429;DHT22;2737;52.386;9.980;2023-09-12T04:47:20;19.40;99.90
5429;DHT22;2737;52.386;9.980;2023-09-12T04:49:50;19.30;99.90
5429;DHT22;2737;52.386;9.980;2023-09-12T04:52:17;19.30;99.90
5429;DHT22;2737;52.386;9.980;2023-09-12T04:54:46;19.30;99.90
5429;DHT22;2737;52.386;9.980;2023-09-12T04:57:13;19.40;99.90
5429;DHT22;2737;52.386;9.980;2023-09-12T04:59:40;19.30;99.90
5429;DHT22;2737;52.386;9.980;2023-09-12T05:02:07;19.40;99.90
5429;DHT22;2737;52.386;9.980;2023-09-12T05:04:34;19.30;99.90
5429;DHT22;2737;52.386;9.980;2023-09-12T05:07:01;19.40;99.90
5429;DHT22;2737;52.386;9.980;2023-09-12T05:09:28;19.40;99.90
5429;DHT22;2737;52.386;9.980;2023-09-12T05:11:57;19.30;99.90
5429;DHT22;2737;52.386;9.980;2023-09-12T05:14:24;19.30;99.90
5429;DHT22;2737;52.386;9.980;2023-09-12T05:16:51;19.40;99.90
5429;DHT22;2737;52.386;9.980;2023-09-12T05:19:18;19.40;99.90
5429;DHT22;2737;52.386;9.980;2023-09-12T05:21:45;19.40;99.90
5429;DHT22;2737;52.386;9.980;2023-09-12T05:24:12;19.40;99.90
5429;DHT22;2737;52.386;9.980;2023-09-12T05:26:39;19.50;99.90
5429;DHT22;2737;52.386;9.980;2023-09-12T05:29:08;19.50;99.90
5429;DHT22;2737;52.386;9.980;2023-09-12T05:31:35;19.50;99.90
5429;DHT22;2737;52.386;9.980;2023-09-12T05:34:02;19.50;99.90
5429;DHT22;2737;52.386;9.980;2023-09-12T05:36:29;19.50;99.90
5429;DHT22;2737;52.386;9.980;2023-09-12T05:38:56;19.50;99.90
5429;DHT22;2737;52.386;9.980;2023-09-12T05:41:23;19.50;99.90
5429;DHT22;2737;52.386;9.980;2023-09-12T05:43:50;19.40;99.90
5429;DHT22;2737;52.386;9.980;2023-09-12T05:46:18;19.40;99.90
5429;DHT22;2737;52.386;9.980;2023-09-12T05:48:45;19.40;99.90
5429;DHT22;2737;52.386;9.980;2023-09-12T05:51:12;19.40;99.90
5429;DHT22;2737;52.386;9.980;2023-09-12T05:53:39;19.40;99.90
5429;DHT22;2737;52.386;9.980;2023-09-12T05:56:06;19.40;99.90
5429;DHT22;2737;52.386;9.980;2023-09-12T05:58:33;19.40;99.90
5429;DHT22;2737;52.386;9.980;2023-09-12T06:01:01;19.40;99.90
5429;DHT22;2737;52.386;9.980;2023-09-12T06:03:30;19.40;99.90
5429;DHT22;2737;52.386;9.980;2023-09-12T06:05:57;19.40;99.90
5429;DHT22;2737;52.386;9.980;2023-09-12T06:08:24;19.30;99.90
5429;DHT22;2737;52.386;9.980;2023-09-12T06:10:51;19.20;99.90
5429;DHT22;2737;52.386;9.980;2023-09-12T06:13:19;19.10;99.90
5429;DHT22;2737;52.386;9.980;2023-09-12T06:15:46;19.10;99.90
5429;DHT22;2737;52.386;9.980;2023-09-12T06:18:13;19.10;99.90
5429;DHT22;2737;52.386;9.980;2023-09-12T06:20:41;19.10;99.90
5429;DHT22;2737;52.386;9.980;2023-09-12T06:23:09;19.20;99.90
5429;DHT22;2737;52.386;9.980;2023-09-12T06:25:36;19.20;99.90
5429;DHT22;2737;52.386;9.980;2023-09-12T06:28:03;19.20;99.90
5429;DHT22;2737;52.386;9.980;2023-09-12T06:30:30;19.20;99.90
5429;DHT22;2737;52.386;9.980;2023-09-12T06:32:57;19.20;99.90
5429;DHT22;2737;52.386;9.980;2023-09-12T06:35:24;19.20;99.90
5429;DHT22;2737;52.386;9.980;2023-09-12T06:37:53;19.20;99.90
5429;DHT22;2737;52.386;9.980;2023-09-12T06:40:22;19.20;99.90
5429;DHT22;2737;52.386;9.980;2023-09-12T06:42:49;19.20;99.90
5429;DHT22;2737;52.386;9.980;2023-09-12T06:45:16;19.20;99.90
5429;DHT22;2737;52.386;9.980;2023-09-12T06:47:43;19.20;99.90
5429;DHT22;2737;52.386;9.980;2023-09-12T06:50:10;19.20;99.90
5429;DHT22;2737;52.386;9.980;2023-09-12T06:52:37;19.20;99.90
5429;DHT22;2737;52.386;9.980;2023-09-12T06:55:06;19.20;99.90
5429;DHT22;2737;52.386;9.980;2023-09-12T06:57:34;19.20;99.90
5429;DHT22;2737;52.386;9.980;2023-09-12T07:00:01;19.10;99.90
5429;DHT22;2737;52.386;9.980;2023-09-12T07:02:29;19.10;99.90
5429;DHT22;2737;52.386;9.980;2023-09-12T07:04:56;19.00;99.90
5429;DHT22;2737;52.386;9.980;2023-09-12T07:07:24;19.00;99.90
5429;DHT22;2737;52.386;9.980;2023-09-12T07:09:51;19.00;99.90
5429;DHT22;2737;52.386;9.980;2023-09-12T07:12:19;19.00;99.90
5429;DHT22;2737;52.386;9.980;2023-09-12T07:14:46;19.00;99.90
5429;DHT22;2737;52.386;9.980;2023-09-12T07:17:13;18.90;99.90
5429;DHT22;2737;52.386;9.980;2023-09-12T07:19:40;18.90;99.90
5429;DHT22;2737;52.386;9.980;2023-09-12T07:22:07;18.90;99.90
5429;DHT22;2737;52.386;9.980;2023-09-12T07:24:34;18.90;99.90
5429;DHT22;2737;52.386;9.980;2023-09-12T07:27:01;18.90;99.90
5429;DHT22;2737;52.386;9.980;2023-09-12T07:29:30;18.90;99.90
5429;DHT22;2737;52.386;9.980;2023-09-12T07:31:57;18.90;99.90
5429;DHT22;2737;52.386;9.980;2023-09-12T07:34:24;18.90;99.90
5429;DHT22;2737;52.386;9.980;2023-09-12T07:36:51;18.90;99.90
5429;DHT22;2737;52.386;9.980;2023-09-12T07:39:19;19.00;99.90
5429;DHT22;2737;52.386;9.980;2023-09-12T07:41:46;18.90;99.90
5429;DHT22;2737;52.386;9.980;2023-09-12T07:44:13;18.90;99.90
5429;DHT22;2737;52.386;9.980;2023-09-12T07:46:43;19.00;99.90
5429;DHT22;2737;52.386;9.980;2023-09-12T07:49:10;19.00;99.90
5429;DHT22;2737;52.386;9.980;2023-09-12T07:51:37;19.00;99.90
5429;DHT22;2737;52.386;9.980;2023-09-12T07:54:04;19.10;99.90
5429;DHT22;2737;52.386;9.980;2023-09-12T07:56:35;19.10;99.90
5429;DHT22;2737;52.386;9.980;2023-09-12T07:59:03;19.20;99.90
5429;DHT22;2737;52.386;9.980;2023-09-12T08:01:30;19.20;99.90
5429;DHT22;2737;52.386;9.980;2023-09-12T08:03:59;19.20;99.90
5429;DHT22;2737;52.386;9.980;2023-09-12T08:06:26;19.40;99.90
5429;DHT22;2737;52.386;9.980;2023-09-12T08:08:54;19.50;99.90
5429;DHT22;2737;52.386;9.980;2023-09-12T08:11:21;19.60;99.90
5429;DHT22;2737;52.386;9.980;2023-09-12T08:13:49;19.50;99.90
5429;DHT22;2737;52.386;9.980;2023-09-12T08:16:16;19.60;99.90
5429;DHT22;2737;52.386;9.980;2023-09-12T08:18:43;19.60;99.90
5429;DHT22;2737;52.386;9.980;2023-09-12T08:21:12;19.60;99.90
5429;DHT22;2737;52.386;9.980;2023-09-12T08:23:39;19.70;99.90
5429;DHT22;2737;52.386;9.980;2023-09-12T08:26:06;19.70;99.90
5429;DHT22;2737;52.386;9.980;2023-09-12T08:28:33;19.80;99.90
5429;DHT22;2737;52.386;9.980;2023-09-12T08:31:00;19.70;99.90
5429;DHT22;2737;52.386;9.980;2023-09-12T08:33:27;19.60;99.90
5429;DHT22;2737;52.386;9.980;2023-09-12T08:35:54;19.70;99.90
5429;DHT22;2737;52.386;9.980;2023-09-12T08:38:23;19.70;99.90
5429;DHT22;2737;52.386;9.980;2023-09-12T08:40:50;19.80;99.90
5429;DHT22;2737;52.386;9.980;2023-09-12T08:43:17;19.80;99.90
5429;DHT22;2737;52.386;9.980;2023-09-12T08:45:45;19.80;99.90
5429;DHT22;2737;52.386;9.980;2023-09-12T08:48:13;19.80;99.90
5429;DHT22;2737;52.386;9.980;2023-09-12T08:50:42;19.70;99.90
5429;DHT22;2737;52.386;9.980;2023-09-12T08:53:10;19.70;99.90
5429;DHT22;2737;52.386;9.980;2023-09-12T08:55:38;19.70;99.90
5429;DHT22;2737;52.386;9.980;2023-09-12T08:58:06;19.70;99.90
5429;DHT22;2737;52.386;9.980;2023-09-12T09:00:33;19.80;99.90
5429;DHT22;2737;52.386;9.980;2023-09-12T09:03:01;19.70;99.90
5429;DHT22;2737;52.386;9.980;2023-09-12T09:05:29;19.80;99.90
5429;DHT22;2737;52.386;9.980;2023-09-12T09:07:57;19.80;99.90
5429;DHT22;2737;52.386;9.980;2023-09-12T09:10:24;19.70;99.90
5429;DHT22;2737;52.386;9.980;2023-09-12T09:12:54;19.70;99.90
5429;DHT22;2737;52.386;9.980;2023-09-12T09:15:22;19.70;99.90
5429;DHT22;2737;52.386;9.980;2023-09-12T09:17:49;19.60;99.90
5429;DHT22;2737;52.386;9.980;2023-09-12T09:20:27;19.70;99.90
5429;DHT22;2737;52.386;9.980;2023-09-12T09:22:59;19.90;99.90
5429;DHT22;2737;52.386;9.980;2023-09-12T09:25:27;19.90;99.90
5429;DHT22;2737;52.386;9.980;2023-09-12T09:27:55;19.90;99.90
5429;DHT22;2737;52.386;9.980;2023-09-12T09:30:41;19.90;99.90
5429;DHT22;2737;52.386;9.980;2023-09-12T09:33:09;20.00;99.90
5429;DHT22;2737;52.386;9.980;2023-09-12T09:35:36;20.00;99.90
5429;DHT22;2737;52.386;9.980;2023-09-12T09:38:06;19.90;99.90
5429;DHT22;2737;52.386;9.980;2023-09-12T09:40:34;19.90;99.90
5429;DHT22;2737;52.386;9.980;2023-09-12T09:43:03;19.90;99.90
5429;DHT22;2737;52.386;9.980;2023-09-12T09:45:31;19.90;99.90
5429;DHT22;2737;52.386;9.980;2023-09-12T09:47:59;19.90;99.90
5429;DHT22;2737;52.386;9.980;2023-09-12T09:50:34;19.90;99.90
5429;DHT22;2737;52.386;9.980;2023-09-12T09:53:03;19.90;99.90
5429;DHT22;2737;52.386;9.980;2023-09-12T09:55:30;19.90;99.90
5429;DHT22;2737;52.386;9.980;2023-09-12T09:57:58;19.70;99.90
5429;DHT22;2737;52.386;9.980;2023-09-12T10:00:29;19.70;99.90
5429;DHT22;2737;52.386;9.980;2023-09-12T10:02:56;19.50;99.90
5429;DHT22;2737;52.386;9.980;2023-09-12T10:05:24;19.50;99.90
5429;DHT22;2737;52.386;9.980;2023-09-12T10:07:53;19.40;99.90
5429;DHT22;2737;52.386;9.980;2023-09-12T10:10:24;19.50;99.90
5429;DHT22;2737;52.386;9.980;2023-09-12T10:12:56;19.40;99.90
5429;DHT22;2737;52.386;9.980;2023-09-12T10:15:28;19.40;99.90
5429;DHT22;2737;52.386;9.980;2023-09-12T10:17:57;19.30;99.90
5429;DHT22;2737;52.386;9.980;2023-09-12T10:20:27;19.30;99.90
5429;DHT22;2737;52.386;9.980;2023-09-12T10:23:03;19.30;99.90
5429;DHT22;2737;52.386;9.980;2023-09-12T10:25:35;19.30;99.90
5429;DHT22;2737;52.386;9.980;2023-09-12T10:28:04;19.30;99.90
5429;DHT22;2737;52.386;9.980;2023-09-12T10:30:33;19.40;99.90
5429;DHT22;2737;52.386;9.980;2023-09-12T10:33:02;19.40;99.90
5429;DHT22;2737;52.386;9.980;2023-09-12T10:35:30;19.40;99.90
5429;DHT22;2737;52.386;9.980;2023-09-12T10:38:01;19.50;99.90
5429;DHT22;2737;52.386;9.980;2023-09-12T10:40:31;19.50;99.90
5429;DHT22;2737;52.386;9.980;2023-09-12T10:42:59;19.50;99.90
5429;DHT22;2737;52.386;9.980;2023-09-12T10:45:30;19.50;99.90
5429;DHT22;2737;52.386;9.980;2023-09-12T10:48:00;19.40;99.90
5429;DHT22;2737;52.386;9.980;2023-09-12T10:50:27;19.30;99.90
5429;DHT22;2737;52.386;9.980;2023-09-12T10:52:55;19.30;99.90
5429;DHT22;2737;52.386;9.980;2023-09-12T10:55:23;19.30;99.90
5429;DHT22;2737;52.386;9.980;2023-09-12T10:58:04;19.20;99.90
5429;DHT22;2737;52.386;9.980;2023-09-12T11:00:31;19.30;99.90
5429;DHT22;2737;52.386;9.980;2023-09-12T11:06:22;19.30;99.90
5429;DHT22;2737;52.386;9.980;2023-09-12T11:09:15;19.50;99.90
5429;DHT22;2737;52.386;9.980;2023-09-12T11:11:45;19.50;99.90
5429;DHT22;2737;52.386;9.980;2023-09-12T11:14:15;19.40;99.90
5429;DHT22;2737;52.386;9.980;2023-09-12T11:16:42;19.40;99.90
5429;DHT22;2737;52.386;9.980;2023-09-12T11:19:16;19.40;99.90
5429;DHT22;2737;52.386;9.980;2023-09-12T11:21:45;19.40;99.90
5429;DHT22;2737;52.386;9.980;2023-09-12T11:24:13;19.50;99.90
5429;DHT22;2737;52.386;9.980;2023-09-12T11:26:53;19.60;99.90
5429;DHT22;2737;52.386;9.980;2023-09-12T11:29:20;19.80;99.90
5429;DHT22;2737;52.386;9.980;2023-09-12T11:31:54;19.90;99.90
5429;DHT22;2737;52.386;9.980;2023-09-12T11:34:25;19.80;99.90
5429;DHT22;2737;52.386;9.980;2023-09-12T11:36:55;19.60;99.90
5429;DHT22;2737;52.386;9.980;2023-09-12T11:39:23;19.50;99.90
5429;DHT22;2737;52.386;9.980;2023-09-12T11:41:52;19.50;99.90
5429;DHT22;2737;52.386;9.980;2023-09-12T11:44:19;19.50;99.90
5429;DHT22;2737;52.386;9.980;2023-09-12T11:46:48;19.60;99.90
5429;DHT22;2737;52.386;9.980;2023-09-12T11:49:17;19.50;99.90
5429;DHT22;2737;52.386;9.980;2023-09-12T11:51:50;19.50;99.90
5429;DHT22;2737;52.386;9.980;2023-09-12T11:54:18;19.50;99.90
5429;DHT22;2737;52.386;9.980;2023-09-12T11:56:47;19.50;99.90
5429;DHT22;2737;52.386;9.980;2023-09-12T11:59:15;19.40;99.90
5429;DHT22;2737;52.386;9.980;2023-09-12T12:01:44;19.30;99.90
5429;DHT22;2737;52.386;9.980;2023-09-12T12:04:12;19.30;99.90
5429;DHT22;2737;52.386;9.980;2023-09-12T12:06:39;19.30;99.90
5429;DHT22;2737;52.386;9.980;2023-09-12T12:09:08;19.30;99.90
5429;DHT22;2737;52.386;9.980;2023-09-12T12:11:36;19.20;99.90
5429;DHT22;2737;52.386;9.980;2023-09-12T12:14:12;19.30;99.90
5429;DHT22;2737;52.386;9.980;2023-09-12T12:16:40;19.30;99.90
5429;DHT22;2737;52.386;9.980;2023-09-12T12:19:07;19.30;99.90
5429;DHT22;2737;52.386;9.980;2023-09-12T12:21:34;19.40;99.90
5429;DHT22;2737;52.386;9.980;2023-09-12T12:24:02;19.40;99.90
5429;DHT22;2737;52.386;9.980;2023-09-12T12:26:32;19.40;99.90
5429;DHT22;2737;52.386;9.980;2023-09-12T12:29:00;19.30;99.90
5429;DHT22;2737;52.386;9.980;2023-09-12T12:31:28;19.30;99.90
5429;DHT22;2737;52.386;9.980;2023-09-12T12:33:55;19.20;99.90
5429;DHT22;2737;52.386;9.980;2023-09-12T12:36:23;19.20;99.90
5429;DHT22;2737;52.386;9.980;2023-09-12T12:38:51;19.10;99.90
5429;DHT22;2737;52.386;9.980;2023-09-12T12:41:23;19.00;99.90
5429;DHT22;2737;52.386;9.980;2023-09-12T12:43:53;18.90;99.90
5429;DHT22;2737;52.386;9.980;2023-09-12T12:46:24;18.90;99.90
5429;DHT22;2737;52.386;9.980;2023-09-12T12:48:51;18.80;99.90
5429;DHT22;2737;52.386;9.980;2023-09-12T12:51:20;18.80;99.90
5429;DHT22;2737;52.386;9.980;2023-09-12T12:53:49;18.90;99.90
5429;DHT22;2737;52.386;9.980;2023-09-12T12:56:18;19.00;99.90
5429;DHT22;2737;52.386;9.980;2023-09-12T12:58:47;19.00;99.90
5429;DHT22;2737;52.386;9.980;2023-09-12T13:01:16;19.10;99.90
5429;DHT22;2737;52.386;9.980;2023-09-12T13:03:43;19.20;99.90
5429;DHT22;2737;52.386;9.980;2023-09-12T13:06:11;19.20;99.90
5429;DHT22;2737;52.386;9.980;2023-09-12T13:08:43;19.30;99.90
5429;DHT22;2737;52.386;9.980;2023-09-12T13:11:11;19.30;99.90
5429;DHT22;2737;52.386;9.980;2023-09-12T13:13:39;19.40;99.90
5429;DHT22;2737;52.386;9.980;2023-09-12T13:16:08;19.50;99.90
5429;DHT22;2737;52.386;9.980;2023-09-12T13:18:37;19.60;99.90
5429;DHT22;2737;52.386;9.980;2023-09-12T13:21:05;19.60;99.90
5429;DHT22;2737;52.386;9.980;2023-09-12T13:23:33;19.70;99.90
5429;DHT22;2737;52.386;9.980;2023-09-12T13:26:01;19.80;99.90
5429;DHT22;2737;52.386;9.980;2023-09-12T13:28:28;19.90;99.90
5429;DHT22;2737;52.386;9.980;2023-09-12T13:30:56;19.90;99.90
5429;DHT22;2737;52.386;9.980;2023-09-12T13:33:24;20.00;99.90
5429;DHT22;2737;52.386;9.980;2023-09-12T13:35:52;20.10;99.90
5429;DHT22;2737;52.386;9.980;2023-09-12T13:38:19;20.10;99.90
5429;DHT22;2737;52.386;9.980;2023-09-12T13:40:48;20.20;99.90
5429;DHT22;2737;52.386;9.980;2023-09-12T13:43:15;20.30;99.90
5429;DHT22;2737;52.386;9.980;2023-09-12T13:45:42;20.40;99.90
5429;DHT22;2737;52.386;9.980;2023-09-12T13:48:09;20.50;99.90
5429;DHT22;2737;52.386;9.980;2023-09-12T13:50:38;20.60;99.90
5429;DHT22;2737;52.386;9.980;2023-09-12T13:53:06;20.60;99.90
5429;DHT22;2737;52.386;9.980;2023-09-12T13:55:33;20.70;99.90
5429;DHT22;2737;52.386;9.980;2023-09-12T13:58:02;20.50;99.90
5429;DHT22;2737;52.386;9.980;2023-09-12T14:00:29;20.60;99.90
5429;DHT22;2737;52.386;9.980;2023-09-12T14:02:56;20.70;99.90
5429;DHT22;2737;52.386;9.980;2023-09-12T14:05:24;20.70;99.90
5429;DHT22;2737;52.386;9.980;2023-09-12T14:07:51;20.80;99.90
5429;DHT22;2737;52.386;9.980;2023-09-12T14:10:19;20.80;99.90
5429;DHT22;2737;52.386;9.980;2023-09-12T14:12:47;20.90;99.90
5429;DHT22;2737;52.386;9.980;2023-09-12T14:15:14;21.00;99.90
5429;DHT22;2737;52.386;9.980;2023-09-12T14:17:41;20.90;99.90
5429;DHT22;2737;52.386;9.980;2023-09-12T14:20:09;20.90;99.90
5429;DHT22;2737;52.386;9.980;2023-09-12T14:22:36;20.90;99.90
5429;DHT22;2737;52.386;9.980;2023-09-12T14:25:04;20.90;99.90
5429;DHT22;2737;52.386;9.980;2023-09-12T14:27:34;21.00;99.90
5429;DHT22;2737;52.386;9.980;2023-09-12T14:30:01;21.00;99.90
5429;DHT22;2737;52.386;9.980;2023-09-12T14:32:29;21.00;99.90
5429;DHT22;2737;52.386;9.980;2023-09-12T14:34:56;20.90;99.90
5429;DHT22;2737;52.386;9.980;2023-09-12T14:37:23;20.90;99.90
5429;DHT22;2737;52.386;9.980;2023-09-12T14:39:53;20.90;99.90
5429;DHT22;2737;52.386;9.980;2023-09-12T14:42:21;20.90;99.90
5429;DHT22;2737;52.386;9.980;2023-09-12T14:44:49;20.90;99.90
5429;DHT22;2737;52.386;9.980;2023-09-12T14:47:16;20.90;99.90
5429;DHT22;2737;52.386;9.980;2023-09-12T14:49:43;20.90;99.90
5429;DHT22;2737;52.386;9.980;2023-09-12T14:52:10;21.00;99.90
5429;DHT22;2737;52.386;9.980;2023-09-12T14:54:37;21.00;99.90
5429;DHT22;2737;52.386;9.980;2023-09-12T14:57:04;21.00;99.90
5429;DHT22;2737;52.386;9.980;2023-09-12T14:59:31;21.00;99.90
5429;DHT22;2737;52.386;9.980;2023-09-12T15:02:00;21.10;99.90
5429;DHT22;2737;52.386;9.980;2023-09-12T15:04:27;21.10;99.90
5429;DHT22;2737;52.386;9.980;2023-09-12T15:06:54;21.10;99.90
5429;DHT22;2737;52.386;9.980;2023-09-12T15:09:21;21.20;99.90
5429;DHT22;2737;52.386;9.980;2023-09-12T15:11:48;21.20;99.90
5429;DHT22;2737;52.386;9.980;2023-09-12T15:14:15;21.10;99.90
5429;DHT22;2737;52.386;9.980;2023-09-12T15:16:42;21.10;99.90
5429;DHT22;2737;52.386;9.980;2023-09-12T15:19:11;21.10;99.90
5429;DHT22;2737;52.386;9.980;2023-09-12T15:21:38;21.10;99.90
5429;DHT22;2737;52.386;9.980;2023-09-12T15:24:06;21.10;99.90
5429;DHT22;2737;52.386;9.980;2023-09-12T15:26:33;21.00;99.90
5429;DHT22;2737;52.386;9.980;2023-09-12T15:29:00;21.10;99.90
5429;DHT22;2737;52.386;9.980;2023-09-12T15:31:27;21.10;99.90
5429;DHT22;2737;52.386;9.980;2023-09-12T15:33:54;21.20;99.90
5429;DHT22;2737;52.386;9.980;2023-09-12T15:36:24;21.20;99.90
5429;DHT22;2737;52.386;9.980;2023-09-12T15:38:51;21.10;99.90
5429;DHT22;2737;52.386;9.980;2023-09-12T15:41:18;21.10;99.90
5429;DHT22;2737;52.386;9.980;2023-09-12T15:43:45;21.20;99.90
5429;DHT22;2737;52.386;9.980;2023-09-12T15:46:12;21.20;99.90
5429;DHT22;2737;52.386;9.980;2023-09-12T15:48:39;21.20;99.90
5429;DHT22;2737;52.386;9.980;2023-09-12T15:51:06;21.20;99.90
5429;DHT22;2737;52.386;9.980;2023-09-12T15:53:35;21.20;99.90
5429;DHT22;2737;52.386;9.980;2023-09-12T15:56:02;21.30;99.90
5429;DHT22;2737;52.386;9.980;2023-09-12T15:58:29;21.30;99.90
5429;DHT22;2737;52.386;9.980;2023-09-12T16:00:56;21.30;99.90
5429;DHT22;2737;52.386;9.980;2023-09-12T16:03:25;21.30;99.90
5429;DHT22;2737;52.386;9.980;2023-09-12T16:05:52;21.30;99.90
5429;DHT22;2737;52.386;9.980;2023-09-12T16:08:19;21.30;99.90
5429;DHT22;2737;52.386;9.980;2023-09-12T16:10:49;21.20;99.90
5429;DHT22;2737;52.386;9.980;2023-09-12T16:13:16;21.30;99.90
5429;DHT22;2737;52.386;9.980;2023-09-12T16:15:43;21.20;99.90